Mastic, NY (11950)

7:56 AM EDT on August 31, 2015 (GMT -0400)
Residential higher plateau | | Change Station
CLOSE
Current Station
Personal Weather Station
Location: Shirley, NY
Elevation: 69 ft
Nearby Weather Stations

Elev 69 ft 40.80 °N, 72.87 °W | Updated 14 minutes ago

Clear
Clear
74.8 °F
Feels Like 75 °F
N
2.7
Wind Variable Wind from WSW

Today
High -- | Low -- °F
--% Chance of Precip.
Yesterday
High -- | Low -- °F
Precip. -- in
6:17 AM 7:25 PM
Waning Gibbous, 96% visible
Pressure 30.03 in
Visibility 9.0 miles
Clouds Clear
Heat Index 75 °F
Dew Point 68 °F
Humidity 80%
Rainfall 0.00 in
Snow Depth Not available.
UV 0 out of 12
Pollen 10.00 out of 12
Air Quality Not available.
Flu Activity Not available.
METAR KHWV 311056Z AUTO 23004KT 9SM CLR 23/21 A3003 RMK AO2 SLP167 T02330206 TSNO
Pressure 30.03 in
Visibility 9.0 miles
Clouds Clear
Heat Index 75 °F
Dew Point 68 °F
Humidity 80%
Rainfall 0.00 in
Snow Depth Not available.
UV 0 out of 12
Pollen 10.00 out of 12
Air Quality Not available.
Flu Activity Not available.
METAR KHWV 311056Z AUTO 23004KT 9SM CLR 23/21 A3003 RMK AO2 SLP167 T02330206 TSNO

10-Day Weather Forecast

×

Almanac

Astronomy

Aug. 31, 2015 Rise Set
Actual Time
Civil Twilight
Nautical Twilight
Astronomical Twilight
Moon
Length of Visible Light
Length of Day
Tomorrow will be .
, % of the Moon is Illuminated

Today's Extremes

State Highs State Lows

Community

WunderPhotos

Upload Photos

1,851,219 photos uploaded!

WunderBlogs® & News

Nearby

Air Quality

  Air Quality AQ Index Pollutant
Not available.

Snow Depth

Station Depth Elevation

Earthquake Activity

City Distance Mag. Time & Date
Minimum magnitude displayed is 2.5.

Coastal Water Temperatures

Place Temperature

Stations

Nearby Weather Stations

Station Location Temp. Windchill Dew Point Humidity Wind Precip. Elev Updated Type